createdAt,value
2022-10-01T00:00:56.455Z,89.37
2022-10-01T00:03:50.639Z,89.37
2022-10-01T00:06:32.329Z,89.42
2022-10-01T00:09:14.022Z,89.50
2022-10-01T00:11:56.941Z,89.54
2022-10-01T00:14:39.603Z,89.37
2022-10-01T00:17:21.311Z,89.38
2022-10-01T00:20:14.019Z,89.52
2022-10-01T00:22:56.301Z,89.56
2022-10-01T00:25:38.914Z,89.55
2022-10-01T00:28:21.097Z,89.75
2022-10-01T00:31:02.806Z,90.19
2022-10-01T00:33:44.906Z,90.19
2022-10-01T00:36:27.313Z,90.25
2022-10-01T00:39:11.378Z,90.16
2022-10-01T00:41:53.258Z,90.37
2022-10-01T00:44:37.813Z,90.24
2022-10-01T00:47:37.631Z,90.71
2022-10-01T00:50:26.474Z,90.71
2022-10-01T00:53:12.428Z,90.84
2022-10-01T00:55:57.243Z,90.90
2022-10-01T00:58:39.753Z,91.05
2022-10-01T01:01:22.470Z,91.09
2022-10-01T01:04:16.473Z,91.78
2022-10-01T01:07:02.748Z,91.98
2022-10-01T01:09:47.306Z,92.44
2022-10-01T01:12:45.583Z,92.43
2022-10-01T01:15:51.579Z,93.09
2022-10-01T01:18:52.589Z,93.05
2022-10-01T01:21:44.521Z,92.84
2022-10-01T01:24:56.112Z,93.46
2022-10-01T01:27:51.276Z,94.11
2022-10-01T01:30:34.240Z,94.65
2022-10-01T01:33:20.947Z,94.82
2022-10-01T01:36:32.405Z,95.19
2022-10-01T01:39:17.302Z,95.57
2022-10-01T01:42:05.420Z,95.37
2022-10-01T01:44:49.389Z,95.11
2022-10-01T01:47:34.663Z,94.82
2022-10-01T01:50:17.179Z,95.06
2022-10-01T01:53:00.092Z,95.40
2022-10-01T01:55:45.445Z,94.91
2022-10-01T01:58:28.391Z,95.12
2022-10-01T02:01:35.599Z,95.20
2022-10-01T02:04:26.179Z,94.79
2022-10-01T02:07:45.453Z,95.16
2022-10-01T02:10:39.224Z,95.15
2022-10-01T02:13:35.456Z,95.26
2022-10-01T02:16:36.091Z,95.15
2022-10-01T02:19:30.786Z,95.35
2022-10-01T02:22:19.974Z,95.79
2022-10-01T02:25:05.341Z,96.19
2022-10-01T02:27:55.947Z,96.10
2022-10-01T02:30:38.644Z,96.05
2022-10-01T02:33:25.866Z,96.39
2022-10-01T02:36:10.281Z,96.22
2022-10-01T02:38:53.445Z,96.34
2022-10-01T02:41:36.865Z,96.22
2022-10-01T02:44:23.484Z,96.35
2022-10-01T02:47:17.770Z,96.25
2022-10-01T02:50:01.332Z,96.33
2022-10-01T02:52:53.040Z,96.23
2022-10-01T02:55:39.654Z,96.10
2022-10-01T02:58:21.365Z,96.38
2022-10-01T03:01:03.779Z,96.72
2022-10-01T03:03:46.142Z,95.87
2022-10-01T03:06:28.345Z,96.32
2022-10-01T03:09:10.038Z,96.61
2022-10-01T03:11:51.727Z,96.48
2022-10-01T03:14:34.239Z,96.44
2022-10-01T03:17:16.952Z,96.39
2022-10-01T03:19:58.645Z,96.62
2022-10-01T03:22:40.334Z,96.66
2022-10-01T03:25:21.950Z,96.77
2022-10-01T03:28:06.451Z,97.45
2022-10-01T03:30:48.274Z,97.22
2022-10-01T03:33:29.968Z,97.10
2022-10-01T03:36:11.699Z,96.93
2022-10-01T03:38:53.449Z,97.01
2022-10-01T03:41:35.346Z,97.48
2022-10-01T03:44:17.754Z,97.87
2022-10-01T03:46:59.853Z,98.35
2022-10-01T03:49:41.543Z,99.51
2022-10-01T03:52:23.235Z,99.99
2022-10-01T03:55:06.052Z,99.98
2022-10-01T03:57:47.947Z,100.00
2022-10-01T04:00:29.639Z,100.00
2022-10-01T04:03:11.462Z,100.00
2022-10-01T04:05:53.123Z,100.00
2022-10-01T04:08:34.917Z,100.00
2022-10-01T04:11:16.813Z,100.00
2022-10-01T04:13:58.504Z,100.00
2022-10-01T04:16:40.222Z,100.00
2022-10-01T04:19:21.819Z,100.00
2022-10-01T04:22:03.678Z,100.00
2022-10-01T04:24:45.284Z,100.00
2022-10-01T04:27:26.959Z,100.00
2022-10-01T04:30:10.395Z,100.00
2022-10-01T04:32:52.080Z,100.00
2022-10-01T04:35:33.975Z,100.00
2022-10-01T04:38:17.305Z,100.00
2022-10-01T04:40:59.098Z,100.00
2022-10-01T04:43:41.301Z,100.00
2022-10-01T04:46:23.159Z,100.00
2022-10-01T04:49:04.991Z,100.00
2022-10-01T04:51:46.562Z,100.00
2022-10-01T04:54:28.270Z,100.00
2022-10-01T04:57:09.960Z,100.00
2022-10-01T04:59:51.651Z,100.00
2022-10-01T05:02:34.749Z,100.00
2022-10-01T05:05:18.834Z,100.00
2022-10-01T05:08:00.923Z,100.00
2022-10-01T05:10:42.882Z,100.00
2022-10-01T05:13:27.889Z,100.00
2022-10-01T05:16:10.009Z,100.00
2022-10-01T05:18:51.680Z,100.00
2022-10-01T05:21:33.587Z,100.00
2022-10-01T05:24:16.393Z,100.00
2022-10-01T05:26:58.698Z,100.00
2022-10-01T05:29:41.721Z,100.00
2022-10-01T05:32:23.531Z,100.00
2022-10-01T05:35:07.242Z,100.00
2022-10-01T05:37:53.144Z,100.00
2022-10-01T05:40:34.832Z,100.00
2022-10-01T05:43:16.422Z,100.00
2022-10-01T05:46:02.172Z,100.00
2022-10-01T05:48:44.001Z,100.00
2022-10-01T05:51:25.999Z,100.00
2022-10-01T05:54:08.509Z,100.00
2022-10-01T05:56:50.611Z,100.00
2022-10-01T05:59:32.347Z,100.00
2022-10-01T06:02:14.062Z,100.00
2022-10-01T06:04:55.990Z,100.00
2022-10-01T06:07:37.682Z,100.00
2022-10-01T06:10:20.934Z,100.00
2022-10-01T06:13:06.535Z,100.00
2022-10-01T06:15:48.287Z,100.00
2022-10-01T06:18:29.987Z,100.00
2022-10-01T06:21:11.665Z,100.00
2022-10-01T06:23:53.765Z,100.00
2022-10-01T06:26:36.684Z,100.00
2022-10-01T06:29:20.732Z,100.00
2022-10-01T06:32:02.388Z,100.00
2022-10-01T06:34:44.215Z,100.00
2022-10-01T06:37:26.034Z,100.00
2022-10-01T06:40:08.415Z,100.00
2022-10-01T06:42:55.996Z,100.00
2022-10-01T06:45:41.306Z,100.00
2022-10-01T06:48:23.628Z,100.00
2022-10-01T06:51:06.037Z,100.00
2022-10-01T06:53:47.725Z,100.00
2022-10-01T06:56:29.313Z,100.00
2022-10-01T06:59:11.006Z,100.00
2022-10-01T07:01:56.396Z,100.00
2022-10-01T07:04:38.585Z,100.00
2022-10-01T07:07:20.185Z,100.00
2022-10-01T07:10:02.798Z,100.00
2022-10-01T07:12:44.579Z,100.00
2022-10-01T07:15:26.166Z,99.34
2022-10-01T07:18:11.237Z,98.08
2022-10-01T07:20:52.928Z,97.41
2022-10-01T07:23:34.620Z,95.89
2022-10-01T07:26:16.312Z,94.29
2022-10-01T07:28:58.000Z,93.22
2022-10-01T07:31:39.735Z,93.46
2022-10-01T07:34:22.510Z,91.58
2022-10-01T07:37:04.610Z,89.72
2022-10-01T07:39:46.299Z,89.74
2022-10-01T07:42:28.298Z,89.25
2022-10-01T07:45:11.221Z,89.85
2022-10-01T07:48:00.152Z,88.30
2022-10-01T07:50:46.068Z,86.06
2022-10-01T07:53:28.375Z,85.10
2022-10-01T07:56:09.990Z,84.30
2022-10-01T07:58:55.648Z,83.26
2022-10-01T08:01:38.373Z,83.31
2022-10-01T08:04:40.431Z,82.53
2022-10-01T08:07:22.125Z,82.52
2022-10-01T08:10:04.806Z,80.77
2022-10-01T08:12:47.040Z,82.10
2022-10-01T08:15:29.400Z,81.17
2022-10-01T08:18:12.273Z,80.65
2022-10-01T08:20:53.956Z,79.57
2022-10-01T08:23:36.567Z,77.24
2022-10-01T08:26:18.259Z,76.35
2022-10-01T08:29:00.054Z,73.39
2022-10-01T08:31:41.879Z,72.23
2022-10-01T08:34:23.843Z,70.70
2022-10-01T08:37:05.533Z,70.99
2022-10-01T08:39:47.237Z,71.61
2022-10-01T08:42:35.634Z,70.61
2022-10-01T08:45:43.364Z,70.76
2022-10-01T08:48:38.386Z,69.95
2022-10-01T08:51:40.038Z,68.70
2022-10-01T08:54:46.510Z,69.48
2022-10-01T08:57:32.500Z,68.83
2022-10-01T09:00:16.649Z,68.61
2022-10-01T09:03:04.601Z,69.01
2022-10-01T09:05:58.592Z,67.69
2022-10-01T09:08:52.842Z,68.60
2022-10-01T09:11:59.323Z,68.62
2022-10-01T09:15:08.663Z,67.96
2022-10-01T09:18:18.616Z,64.34
2022-10-01T09:21:00.717Z,61.54
2022-10-01T09:23:58.279Z,62.06
2022-10-01T09:26:45.192Z,61.66
2022-10-01T09:29:40.094Z,60.76
2022-10-01T09:32:30.488Z,60.69
2022-10-01T09:35:21.005Z,61.16
2022-10-01T09:38:12.524Z,61.09
2022-10-01T09:40:55.810Z,60.65
2022-10-01T09:43:39.850Z,60.10
2022-10-01T09:46:21.605Z,60.17
2022-10-01T09:49:28.046Z,61.11
2022-10-01T09:52:18.482Z,61.26
2022-10-01T09:55:06.488Z,60.80
2022-10-01T09:57:53.998Z,60.89
2022-10-01T10:00:37.995Z,61.58
2022-10-01T10:03:31.093Z,62.19
2022-10-01T10:06:14.134Z,62.93
2022-10-01T10:08:58.151Z,61.81
2022-10-01T10:11:42.891Z,61.15
2022-10-01T10:14:31.801Z,61.16
2022-10-01T10:17:16.946Z,60.65
2022-10-01T10:19:59.139Z,61.21
2022-10-01T10:22:40.867Z,61.14
2022-10-01T10:25:24.709Z,60.20
2022-10-01T10:28:20.221Z,60.87
2022-10-01T10:31:02.137Z,60.53
2022-10-01T10:33:55.793Z,60.84
2022-10-01T10:40:53.381Z,61.26
2022-10-01T10:43:38.327Z,62.55
2022-10-01T10:46:23.532Z,62.71
2022-10-01T10:49:18.563Z,60.98
2022-10-01T10:52:01.856Z,60.93
2022-10-01T10:54:47.956Z,61.08
2022-10-01T10:57:34.661Z,62.21
2022-10-01T11:00:26.188Z,62.03
2022-10-01T11:03:15.019Z,61.73
2022-10-01T11:06:09.119Z,61.68
2022-10-01T11:09:02.599Z,61.61
2022-10-01T11:12:09.570Z,62.52
2022-10-01T11:14:57.610Z,63.14
2022-10-01T11:17:55.639Z,63.22
2022-10-01T11:21:01.032Z,63.40
2022-10-01T11:24:04.020Z,63.80
2022-10-01T11:27:11.678Z,63.70
2022-10-01T11:30:26.819Z,63.51
2022-10-01T11:33:18.009Z,62.24
2022-10-01T11:36:21.510Z,61.83
2022-10-01T11:39:10.259Z,62.16
2022-10-01T11:41:59.434Z,62.45
2022-10-01T11:45:03.606Z,62.41
2022-10-01T11:47:54.255Z,61.75
2022-10-01T11:50:48.549Z,62.23
2022-10-01T11:53:45.100Z,61.95
2022-10-01T11:56:54.212Z,61.81
2022-10-01T11:59:50.122Z,61.59
2022-10-01T12:02:39.098Z,62.02
2022-10-01T12:05:29.314Z,61.47
2022-10-01T12:08:22.228Z,61.29
2022-10-01T12:11:16.428Z,61.31
2022-10-01T12:14:09.076Z,61.68
2022-10-01T12:17:04.795Z,62.38
2022-10-01T12:19:53.334Z,61.30
2022-10-01T12:22:39.030Z,61.56
2022-10-01T12:25:26.558Z,62.02
2022-10-01T12:28:21.471Z,62.58
2022-10-01T12:31:11.026Z,62.50
2022-10-01T12:34:06.652Z,61.91
2022-10-01T12:37:41.798Z,61.75
2022-10-01T12:40:40.043Z,60.47
2022-10-01T12:43:40.131Z,60.65
2022-10-01T12:46:52.637Z,59.97
2022-10-01T12:50:05.841Z,59.67
2022-10-01T12:53:02.998Z,60.22
2022-10-01T12:55:55.130Z,59.59
2022-10-01T12:59:06.621Z,60.30
2022-10-01T13:02:10.890Z,61.71
2022-10-01T13:05:24.683Z,61.98
2022-10-01T13:08:27.878Z,61.30
2022-10-01T13:11:28.963Z,61.13
2022-10-01T13:14:19.071Z,61.18
2022-10-01T13:17:18.625Z,60.93
2022-10-01T13:20:09.223Z,60.29
2022-10-01T13:23:13.032Z,60.91
2022-10-01T13:26:23.403Z,61.37
2022-10-01T13:29:27.072Z,61.80
2022-10-01T13:32:26.510Z,61.36
2022-10-01T13:35:25.816Z,61.43
2022-10-01T13:38:15.000Z,60.34
2022-10-01T13:41:05.270Z,60.41
2022-10-01T13:43:59.351Z,61.59
2022-10-01T13:46:53.856Z,60.81
2022-10-01T13:49:37.889Z,60.97
2022-10-01T13:52:21.136Z,61.31
2022-10-01T13:55:03.319Z,61.88
2022-10-01T13:57:44.971Z,61.95
2022-10-01T14:00:27.673Z,62.24
2022-10-01T14:03:51.093Z,62.58
2022-10-01T14:06:35.183Z,63.10
2022-10-01T14:09:26.455Z,63.24
2022-10-01T14:12:31.800Z,63.66
2022-10-01T14:15:36.150Z,64.32
2022-10-01T14:18:24.284Z,65.04
2022-10-01T14:21:50.910Z,65.76
2022-10-01T14:25:10.284Z,67.75
2022-10-01T14:28:18.614Z,69.79
2022-10-01T14:31:15.670Z,68.97
2022-10-01T14:34:32.054Z,69.96
2022-10-01T14:37:18.279Z,70.81
2022-10-01T14:40:01.683Z,70.22
2022-10-01T14:42:44.000Z,70.13
2022-10-01T14:45:25.784Z,68.30
2022-10-01T14:48:10.031Z,67.42
2022-10-01T14:50:57.618Z,68.47
2022-10-01T14:53:43.141Z,70.00
2022-10-01T14:56:28.007Z,71.50
2022-10-01T14:59:20.143Z,71.50
2022-10-01T15:02:04.684Z,72.20
2022-10-01T15:04:51.887Z,72.91
2022-10-01T15:07:35.865Z,73.33
2022-10-01T15:10:20.602Z,74.02
2022-10-01T15:13:02.627Z,74.32
2022-10-01T15:15:44.521Z,74.94
2022-10-01T15:18:27.036Z,75.57
2022-10-01T15:21:18.041Z,76.01
2022-10-01T15:23:59.943Z,76.83
2022-10-01T15:26:41.709Z,77.13
2022-10-01T15:29:24.157Z,77.75
2022-10-01T15:32:07.161Z,78.07
2022-10-01T15:34:53.254Z,78.58
2022-10-01T15:37:37.172Z,78.99
2022-10-01T15:40:30.831Z,79.38
2022-10-01T15:43:24.544Z,79.52
2022-10-01T15:46:20.181Z,80.38
2022-10-01T15:49:13.218Z,80.85
2022-10-01T15:52:19.441Z,80.76
2022-10-01T15:55:01.178Z,81.82
2022-10-01T15:57:45.117Z,82.08
2022-10-01T16:00:29.761Z,82.15
2022-10-01T16:03:19.986Z,82.47
2022-10-01T16:06:04.131Z,82.91
2022-10-01T16:09:05.202Z,83.33
2022-10-01T16:11:59.141Z,84.21
2022-10-01T16:14:44.233Z,84.42
2022-10-01T16:17:31.431Z,84.85
2022-10-01T16:20:17.015Z,85.60
2022-10-01T16:23:32.137Z,86.19
2022-10-01T16:26:38.640Z,86.54
2022-10-01T16:29:26.205Z,85.93
2022-10-01T16:32:13.688Z,86.61
2022-10-01T16:35:15.785Z,86.68
2022-10-01T16:37:58.297Z,86.54
2022-10-01T16:40:43.581Z,87.16
2022-10-01T16:43:25.420Z,87.05
2022-10-01T16:46:07.205Z,87.18
2022-10-01T16:48:53.770Z,87.16
2022-10-01T16:51:35.559Z,87.32
2022-10-01T16:54:27.591Z,87.42
2022-10-01T16:57:14.112Z,87.38
2022-10-01T17:00:03.277Z,87.62
2022-10-01T17:02:47.509Z,87.05
2022-10-01T17:05:37.380Z,87.32
2022-10-01T17:08:19.869Z,86.98
2022-10-01T17:11:04.379Z,86.86
2022-10-01T17:13:49.201Z,86.57
2022-10-01T17:16:31.058Z,86.71
2022-10-01T17:19:13.987Z,86.45
2022-10-01T17:21:56.041Z,86.53
2022-10-01T17:24:38.479Z,86.40
2022-10-01T17:27:20.872Z,86.51
2022-10-01T17:30:03.786Z,86.82
2022-10-01T17:32:46.666Z,86.93
2022-10-01T17:35:29.820Z,86.89
2022-10-01T17:38:13.321Z,87.09
2022-10-01T17:40:56.856Z,87.42
2022-10-01T17:43:41.752Z,87.54
2022-10-01T17:46:23.910Z,87.68
2022-10-01T17:49:08.514Z,87.90
2022-10-01T17:51:50.718Z,88.34
2022-10-01T17:54:34.155Z,88.81
2022-10-01T17:57:16.289Z,89.70
2022-10-01T17:59:58.705Z,90.48
2022-10-01T18:02:42.872Z,89.95
2022-10-01T18:05:25.211Z,90.63
2022-10-01T18:08:08.989Z,90.50
2022-10-01T18:10:52.455Z,90.46
2022-10-01T18:13:39.104Z,90.88
2022-10-01T18:16:21.974Z,91.15
2022-10-01T18:22:13.627Z,91.19
2022-10-01T18:24:56.987Z,91.88
2022-10-01T18:27:39.702Z,92.29
2022-10-01T18:30:22.004Z,92.42
2022-10-01T18:33:04.211Z,92.83
2022-10-01T18:35:51.631Z,93.12
2022-10-01T18:38:35.667Z,93.38
2022-10-01T18:41:39.206Z,93.57
2022-10-01T18:44:21.735Z,93.54
2022-10-01T18:47:24.271Z,93.67
2022-10-01T18:50:35.539Z,94.40
2022-10-01T18:53:36.703Z,94.25
2022-10-01T18:56:29.315Z,94.05
2022-10-01T18:59:32.676Z,93.97
2022-10-01T19:02:36.050Z,94.08
2022-10-01T19:05:25.559Z,94.29
2022-10-01T19:08:11.560Z,94.63
2022-10-01T19:11:08.413Z,94.63
2022-10-01T19:14:28.450Z,94.45
2022-10-01T19:17:24.349Z,94.45
2022-10-01T19:20:45.905Z,94.87
2022-10-01T19:24:07.621Z,95.11
2022-10-01T19:27:09.800Z,94.82
2022-10-01T19:29:58.115Z,94.93
2022-10-01T19:32:59.397Z,94.89
2022-10-01T19:35:47.029Z,94.85
2022-10-01T19:38:41.007Z,94.79
2022-10-01T19:41:44.103Z,94.60
2022-10-01T19:44:40.979Z,94.67
2022-10-01T19:47:45.120Z,94.86
2022-10-01T19:50:50.951Z,94.94
2022-10-01T19:53:37.652Z,94.93
2022-10-01T19:56:26.283Z,94.98
2022-10-01T19:59:15.689Z,94.82
2022-10-01T20:02:25.823Z,94.83
2022-10-01T20:05:16.528Z,95.16
2022-10-01T20:08:10.286Z,94.87
2022-10-01T20:11:28.128Z,95.04
2022-10-01T20:15:01.585Z,94.88
2022-10-01T20:17:51.301Z,94.75
2022-10-01T20:21:07.116Z,94.94
2022-10-01T20:23:55.093Z,94.90
2022-10-01T20:27:17.912Z,94.57
2022-10-01T20:30:07.617Z,94.44
2022-10-01T20:32:57.705Z,94.58
2022-10-01T20:36:15.378Z,94.51
2022-10-01T20:39:37.701Z,94.40
2022-10-01T20:42:30.691Z,94.36
2022-10-01T20:45:26.706Z,94.47
2022-10-01T20:48:23.754Z,94.52
2022-10-01T20:51:25.943Z,94.51
2022-10-01T20:54:33.951Z,94.37
2022-10-01T20:57:25.881Z,94.66
2022-10-01T21:00:24.213Z,94.54
2022-10-01T21:03:34.414Z,94.58
2022-10-01T21:06:27.069Z,94.48
2022-10-01T21:09:26.246Z,94.69
2022-10-01T21:12:20.720Z,94.54
2022-10-01T21:15:06.509Z,94.66
2022-10-01T21:18:19.044Z,94.57
2022-10-01T21:21:21.796Z,94.74
2022-10-01T21:24:21.869Z,94.66
2022-10-01T21:27:22.034Z,94.88
2022-10-01T21:30:35.972Z,94.85
2022-10-01T21:33:53.470Z,94.72
2022-10-01T21:36:51.853Z,94.90
2022-10-01T21:40:00.884Z,94.69
2022-10-01T21:42:53.194Z,94.61
2022-10-01T21:45:54.840Z,94.73
2022-10-01T21:49:08.526Z,94.98
2022-10-01T21:52:02.809Z,95.03
2022-10-01T21:55:04.571Z,95.27
2022-10-01T21:58:02.339Z,95.24
2022-10-01T22:00:55.229Z,95.17
2022-10-01T22:04:23.885Z,95.27
2022-10-01T22:07:31.998Z,95.37
2022-10-01T22:10:35.808Z,95.37
2022-10-01T22:13:25.178Z,95.05
2022-10-01T22:16:13.838Z,94.95
2022-10-01T22:18:58.161Z,95.10
2022-10-01T22:21:46.211Z,95.29
2022-10-01T22:24:33.967Z,95.17
2022-10-01T22:27:33.540Z,95.31
2022-10-01T22:30:23.452Z,95.18
2022-10-01T22:33:31.457Z,95.57
2022-10-01T22:36:24.983Z,95.56
2022-10-01T22:39:23.921Z,95.64
2022-10-01T22:42:30.506Z,95.50
2022-10-01T22:45:14.766Z,95.49
2022-10-01T22:48:19.477Z,95.45
2022-10-01T22:51:19.907Z,95.31
2022-10-01T22:54:22.180Z,95.27
2022-10-01T22:57:31.932Z,95.32
2022-10-01T23:00:15.465Z,95.33
2022-10-01T23:03:23.496Z,95.63
2022-10-01T23:06:11.605Z,95.76
2022-10-01T23:09:07.847Z,95.87
2022-10-01T23:11:55.988Z,96.05
2022-10-01T23:14:57.953Z,96.07
2022-10-01T23:17:46.245Z,96.46
2022-10-01T23:20:34.853Z,96.59
2022-10-01T23:23:33.091Z,96.48
2022-10-01T23:26:23.123Z,96.69
2022-10-01T23:29:23.752Z,97.16
2022-10-01T23:32:13.431Z,97.35
2022-10-01T23:35:04.892Z,97.28
2022-10-01T23:38:10.605Z,97.74
2022-10-01T23:40:52.504Z,97.83
2022-10-01T23:43:48.328Z,97.75
2022-10-01T23:46:33.881Z,98.23
2022-10-01T23:49:17.161Z,98.03
2022-10-01T23:52:11.008Z,98.28
2022-10-01T23:55:17.999Z,97.99
2022-10-01T23:58:03.336Z,97.94
